Time;durP1;ratioP1;P1;durP2;ratioP2;P2;SDS_P1;SDS_P2;PMS_P1;PMS_P2;Temp;Humidity;BMP_temperature;BMP_pressure;BME280_temperature;BME280_humidity;BME280_pressure;Samples;Min_cycle;Max_cycle;Signal;HPM_P1;HPM_P2
2022/01/03 00:00:02;;;;;;;1.63;0.40;;;;;;;10.98;100.00;98680.34;5010624;28;20191;-82
2022/01/03 00:02:30;;;;;;;1.73;0.60;;;;;;;11.06;100.00;98672.69;5005488;28;20191;-81
2022/01/03 00:04:58;;;;;;;2.53;0.63;;;;;;;10.90;100.00;98672.97;5015038;28;20732;-82
2022/01/03 00:07:28;;;;;;;1.23;0.50;;;;;;;10.96;100.00;98669.88;5008722;28;20261;-82
2022/01/03 00:10:00;;;;;;;2.17;0.50;;;;;;;10.95;100.00;98677.94;5008881;28;20257;-82
2022/01/03 00:12:30;;;;;;;2.00;0.60;;;;;;;10.91;100.00;98679.13;5008612;28;20198;-82
2022/01/03 00:14:59;;;;;;;1.07;0.50;;;;;;;10.96;100.00;98682.28;5004924;28;20191;-81
2022/01/03 00:17:29;;;;;;;3.60;0.80;;;;;;;11.05;100.00;98685.09;5008775;28;20195;-81
2022/01/03 00:19:57;;;;;;;2.33;0.60;;;;;;;11.11;100.00;98687.31;5006908;28;20187;-81
2022/01/03 00:22:28;;;;;;;4.33;1.17;;;;;;;11.23;100.00;98690.00;5012128;28;20190;-81
2022/01/03 00:25:04;;;;;;;4.47;0.93;;;;;;;11.18;100.00;98692.97;5007878;28;20225;-82
2022/01/03 00:27:41;;;;;;;1.43;0.60;;;;;;;11.18;100.00;98703.59;5007188;28;20201;-82
2022/01/03 00:30:10;;;;;;;3.17;0.70;;;;;;;11.22;100.00;98707.72;4973538;28;20707;-81
2022/01/03 00:32:39;;;;;;;1.83;0.70;;;;;;;11.17;100.00;98710.69;4967773;28;20204;-81
2022/01/03 00:35:09;;;;;;;2.37;0.87;;;;;;;11.22;100.00;98707.72;4973459;28;20218;-81
2022/01/03 00:37:39;;;;;;;3.97;0.67;;;;;;;11.02;100.00;98713.63;4970885;28;20204;-81
2022/01/03 00:40:13;;;;;;;1.43;0.63;;;;;;;11.02;100.00;98713.63;4966895;28;20199;-82
2022/01/03 00:42:41;;;;;;;3.13;0.80;;;;;;;10.92;100.00;98709.97;4966101;28;20213;-82
2022/01/03 00:45:10;;;;;;;2.93;0.80;;;;;;;10.97;100.00;98711.31;4971585;28;20223;-81
2022/01/03 00:47:40;;;;;;;2.87;0.80;;;;;;;11.01;100.00;98704.00;5005494;28;20217;-81
2022/01/03 00:50:11;;;;;;;2.13;0.93;;;;;;;11.00;100.00;98721.72;5014813;28;20343;-81
2022/01/03 00:52:40;;;;;;;3.13;1.00;;;;;;;11.01;100.00;98704.00;5005277;28;20198;-81
2022/01/03 00:55:11;;;;;;;5.23;0.80;;;;;;;10.88;100.00;98711.97;5011949;28;20205;-81
2022/01/03 00:57:58;;;;;;;2.97;1.00;;;;;;;10.78;100.00;98714.44;5005617;28;20290;-81
2022/01/03 01:00:31;;;;;;;3.70;0.93;;;;;;;10.85;100.00;98710.41;5010463;28;20715;-81
2022/01/03 01:03:05;;;;;;;3.60;1.10;;;;;;;10.87;100.00;98728.84;5010754;28;20213;-81
2022/01/03 01:05:34;;;;;;;3.53;0.80;;;;;;;10.84;100.00;98734.38;5005663;28;20209;-81
2022/01/03 01:08:03;;;;;;;2.83;0.90;;;;;;;10.74;100.00;98726.22;5011427;28;20210;-81
2022/01/03 01:10:36;;;;;;;4.43;1.17;;;;;;;10.85;100.00;98741.34;5007838;28;20194;-81
2022/01/03 01:13:06;;;;;;;5.13;1.50;;;;;;;10.74;100.00;98738.63;5007206;28;20256;-81
2022/01/03 01:15:36;;;;;;;7.20;1.37;;;;;;;10.72;100.00;98741.41;5011285;28;20202;-81
2022/01/03 01:18:05;;;;;;;7.07;1.50;;;;;;;10.74;100.00;98744.78;5011081;28;20206;-81
2022/01/03 01:20:35;;;;;;;8.70;1.13;;;;;;;10.79;100.00;98747.06;5007944;28;20230;-81
2022/01/03 01:23:04;;;;;;;3.87;1.03;;;;;;;10.72;100.00;98753.78;5009762;28;20202;-82
2022/01/03 01:28:20;;;;;;;7.30;1.20;;;;;;;10.70;100.00;98758.31;5009897;28;20198;-81
2022/01/03 01:30:52;;;;;;;7.43;1.63;;;;;;;10.69;100.00;98760.13;5007742;28;20713;-82
2022/01/03 01:33:22;;;;;;;6.87;1.40;;;;;;;10.50;100.00;98763.22;5007809;28;20257;-81
2022/01/03 01:36:11;;;;;;;6.90;1.40;;;;;;;10.62;100.00;98761.53;5013965;28;20203;-81
2022/01/03 01:38:41;;;;;;;5.97;1.10;;;;;;;10.55;100.00;98760.28;5008963;28;20202;-82
2022/01/03 01:41:11;;;;;;;6.90;1.20;;;;;;;10.53;100.00;98770.13;5009621;28;20206;-81
2022/01/03 01:43:42;;;;;;;8.83;1.43;;;;;;;10.55;100.00;98769.06;5010655;28;20233;-81
2022/01/03 01:46:13;;;;;;;8.23;1.50;;;;;;;10.47;100.00;98775.84;5009636;28;20202;-81
2022/01/03 01:48:44;;;;;;;5.13;1.30;;;;;;;10.49;100.00;98763.34;4930293;29;20216;-83
2022/01/03 01:51:15;;;;;;;5.57;1.67;;;;;;;10.45;100.00;98764.53;4930310;29;20319;-81
2022/01/03 01:53:45;;;;;;;6.27;1.40;;;;;;;10.40;100.00;98777.22;4932610;29;20205;-81
2022/01/03 01:56:19;;;;;;;9.53;1.73;;;;;;;10.44;100.00;98789.31;4921550;28;20665;-81
2022/01/03 01:59:21;;;;;;;7.57;1.70;;;;;;;10.37;100.00;98786.22;4931510;29;20200;-81
2022/01/03 02:01:57;;;;;;;7.90;1.50;;;;;;;10.44;100.00;98795.44;4930275;29;20216;-81
2022/01/03 02:04:34;;;;;;;5.93;1.50;;;;;;;10.46;100.00;98779.44;4930421;29;20303;-81
2022/01/03 02:07:29;;;;;;;6.80;1.77;;;;;;;10.23;100.00;98792.47;4979719;28;20192;-81
2022/01/03 02:10:10;;;;;;;7.40;1.33;;;;;;;10.13;100.00;98777.28;5011674;28;20221;-82
2022/01/03 02:12:46;;;;;;;8.37;1.37;;;;;;;10.07;100.00;98775.91;5008868;28;20633;-81
2022/01/03 02:15:16;;;;;;;9.70;1.50;;;;;;;10.00;100.00;98786.06;5009303;28;20270;-81
2022/01/03 02:17:47;;;;;;;8.87;1.30;;;;;;;9.96;100.00;98784.59;5009127;28;20201;-81
2022/01/03 02:20:30;;;;;;;8.43;1.77;;;;;;;9.99;100.00;98792.31;5011029;28;20203;-81
2022/01/03 02:22:59;;;;;;;7.83;1.53;;;;;;;9.96;100.00;98789.03;5010692;28;20202;-82
2022/01/03 02:25:28;;;;;;;5.93;1.50;;;;;;;9.94;100.00;98783.84;5008931;28;20214;-81
2022/01/03 02:27:56;;;;;;;10.07;1.57;;;;;;;9.89;100.00;98795.66;5001497;28;20206;-82
2022/01/03 02:30:29;;;;;;;8.33;1.43;;;;;;;9.90;100.00;98808.78;5008142;28;20275;-82
2022/01/03 02:32:59;;;;;;;4.87;1.50;;;;;;;9.93;100.00;98797.16;5008486;28;20248;-81
2022/01/03 02:35:35;;;;;;;5.53;1.27;;;;;;;9.92;100.00;98806.03;5008064;28;20229;-81
2022/01/03 02:38:05;;;;;;;5.33;1.30;;;;;;;9.90;100.00;98786.78;4937370;29;20255;-82
2022/01/03 02:40:34;;;;;;;5.20;1.63;;;;;;;9.81;100.00;98787.41;4935056;29;20437;-81
2022/01/03 02:43:02;;;;;;;8.97;1.40;;;;;;;9.81;100.00;98803.25;4936329;29;20197;-82
2022/01/03 02:45:31;;;;;;;6.57;1.73;;;;;;;9.84;100.00;98822.41;4901781;29;20221;-81
2022/01/03 02:48:03;;;;;;;7.97;1.53;;;;;;;9.92;100.00;98806.03;4937495;29;20197;-81
2022/01/03 02:50:37;;;;;;;6.70;1.33;;;;;;;9.91;100.00;98809.63;4932821;29;20212;-81
2022/01/03 02:53:08;;;;;;;6.60;1.30;;;;;;;9.83;100.00;98799.56;4931554;28;20197;-82
2022/01/03 02:55:37;;;;;;;5.80;1.63;;;;;;;9.85;100.00;98815.34;4951327;28;20206;-82
2022/01/03 02:58:08;;;;;;;6.17;1.30;;;;;;;9.74;100.00;98811.59;5012793;28;20206;-81
2022/01/03 03:00:44;;;;;;;8.07;1.50;;;;;;;9.78;100.00;98800.84;5014380;28;20281;-82
2022/01/03 03:03:13;;;;;;;6.97;1.07;;;;;;;9.81;100.00;98822.63;5012053;28;20190;-82
2022/01/03 03:05:45;;;;;;;5.07;1.17;;;;;;;9.89;100.00;98814.19;5008744;28;20245;-81
2022/01/03 03:08:14;;;;;;;7.17;1.50;;;;;;;9.89;100.00;98814.19;5014251;28;20202;-81
2022/01/03 03:10:44;;;;;;;6.40;1.50;;;;;;;9.81;100.00;98811.19;5011086;28;20198;-81
2022/01/03 03:13:13;;;;;;;5.87;1.30;;;;;;;9.81;100.00;98811.19;5013164;28;20207;-81
2022/01/03 03:15:42;;;;;;;4.00;1.20;;;;;;;9.74;100.00;98819.53;5013384;28;20256;-81
2022/01/03 03:18:12;;;;;;;6.70;1.47;;;;;;;9.71;100.00;98813.59;5016180;28;20195;-81
2022/01/03 03:20:43;;;;;;;4.97;1.10;;;;;;;9.77;100.00;98820.31;5016167;28;20222;-81
2022/01/03 03:23:13;;;;;;;6.07;1.53;;;;;;;9.70;100.00;98814.56;5009292;28;20225;-81
2022/01/03 03:25:42;;;;;;;3.27;1.23;;;;;;;9.66;100.00;98810.44;4978595;28;20214;-82
2022/01/03 03:28:13;;;;;;;4.73;1.13;;;;;;;9.59;100.00;98811.78;5011056;28;20210;-81
2022/01/03 03:30:43;;;;;;;7.80;1.20;;;;;;;9.50;100.00;98818.50;5008354;28;20264;-81
2022/01/03 03:33:18;;;;;;;4.10;1.10;;;;;;;9.55;100.00;98821.69;5005706;28;20256;-81
2022/01/03 03:35:50;;;;;;;4.83;1.20;;;;;;;9.61;100.00;98825.75;5017973;28;20201;-81
2022/01/03 03:38:23;;;;;;;5.13;1.30;;;;;;;9.54;100.00;98832.38;5019764;28;20201;-81
2022/01/03 03:40:52;;;;;;;3.23;1.07;;;;;;;9.58;100.00;98825.94;5019650;28;20202;-82
2022/01/03 03:43:23;;;;;;;3.83;1.30;;;;;;;9.53;100.00;98841.25;5014943;28;20195;-81
2022/01/03 03:45:52;;;;;;;5.50;1.10;;;;;;;9.49;100.00;98830.03;5012777;28;20228;-81
2022/01/03 03:48:21;;;;;;;3.40;1.00;;;;;;;9.43;100.00;98828.63;5012875;28;20195;-81
2022/01/03 03:50:49;;;;;;;5.03;1.27;;;;;;;9.50;100.00;98831.72;5015977;28;20203;-81
2022/01/03 03:53:20;;;;;;;4.37;1.10;;;;;;;9.55;100.00;98834.91;5008651;28;20202;-81
2022/01/03 03:55:51;;;;;;;6.43;1.20;;;;;;;9.51;100.00;98837.88;5007500;28;20203;-81
2022/01/03 03:58:19;;;;;;;5.10;1.43;;;;;;;9.48;100.00;98838.91;5004785;28;20202;-81
2022/01/03 04:00:48;;;;;;;5.87;1.40;;;;;;;9.38;100.00;98838.66;5010164;28;20194;-82
2022/01/03 04:03:36;;;;;;;5.43;1.20;;;;;;;9.55;100.00;98847.28;5013701;28;20646;-81
2022/01/03 04:06:05;;;;;;;4.80;0.97;;;;;;;9.54;100.00;98854.38;5017937;28;20209;-80
2022/01/03 04:08:33;;;;;;;3.73;1.00;;;;;;;9.58;100.00;98842.66;5001455;28;20194;-81
2022/01/03 04:11:03;;;;;;;5.10;1.20;;;;;;;9.50;100.00;98831.72;5017104;28;20195;-82
2022/01/03 04:13:31;;;;;;;5.67;1.53;;;;;;;9.51;100.00;98849.28;5009025;28;20201;-81
2022/01/03 04:16:00;;;;;;;6.57;1.40;;;;;;;9.48;100.00;98853.94;5012251;28;20199;-82
2022/01/03 04:18:28;;;;;;;6.20;1.33;;;;;;;9.34;100.00;98853.00;5009374;28;20684;-81
2022/01/03 04:20:57;;;;;;;7.63;1.63;;;;;;;9.28;100.00;98856.06;5009669;28;20226;-82
2022/01/03 04:23:25;;;;;;;5.97;1.63;;;;;;;9.27;100.00;98859.66;5012172;28;20199;-82
2022/01/03 04:25:53;;;;;;;5.63;1.20;;;;;;;9.28;100.00;98855.22;5009600;28;20229;-81
2022/01/03 04:28:23;;;;;;;7.73;1.40;;;;;;;9.40;100.00;98862.34;5005159;28;20194;-81
2022/01/03 04:30:51;;;;;;;5.70;1.33;;;;;;;9.27;100.00;98864.09;5009571;28;20206;-81
2022/01/03 04:33:20;;;;;;;7.13;1.30;;;;;;;9.26;100.00;98854.44;5012159;28;20194;-81
2022/01/03 04:35:48;;;;;;;8.07;1.30;;;;;;;9.27;100.00;98862.28;5012216;28;20274;-82
2022/01/03 04:38:18;;;;;;;5.90;1.70;;;;;;;9.13;100.00;98864.94;5014943;28;20202;-81
2022/01/03 04:40:46;;;;;;;6.30;1.40;;;;;;;9.22;100.00;98861.72;5010467;28;20206;-82
2022/01/03 04:43:15;;;;;;;5.63;1.50;;;;;;;9.20;100.00;98863.63;5007351;28;20209;-81
2022/01/03 04:45:44;;;;;;;4.57;1.67;;;;;;;9.33;100.00;98856.59;5012561;28;20219;-82
2022/01/03 04:48:13;;;;;;;7.67;1.60;;;;;;;9.23;100.00;98854.63;5012101;28;20206;-82
2022/01/03 04:50:41;;;;;;;8.77;1.57;;;;;;;9.35;100.00;98856.50;5009449;28;20207;-81
2022/01/03 04:53:09;;;;;;;3.80;1.30;;;;;;;9.11;100.00;98853.63;5014941;28;20222;-82
2022/01/03 04:55:43;;;;;;;8.47;1.73;;;;;;;9.31;100.00;98858.50;5009858;28;20214;-82
2022/01/03 04:58:11;;;;;;;10.63;1.47;;;;;;;9.30;100.00;98859.44;5005475;28;20209;-82
2022/01/03 05:00:39;;;;;;;4.70;1.33;;;;;;;9.43;100.00;98859.50;5011745;28;20190;-81
2022/01/03 05:03:11;;;;;;;6.97;1.37;;;;;;;9.46;100.00;98862.81;5009260;28;20205;-82
2022/01/03 05:05:39;;;;;;;3.50;1.20;;;;;;;9.46;100.00;98865.47;5006749;28;20245;-81
2022/01/03 05:08:07;;;;;;;8.53;1.90;;;;;;;9.53;100.00;98859.75;5011564;28;20201;-82
2022/01/03 05:10:36;;;;;;;5.87;1.47;;;;;;;9.40;100.00;98860.56;5014312;28;20257;-82
2022/01/03 05:13:04;;;;;;;4.97;1.10;;;;;;;9.45;100.00;98869.03;5010175;28;20195;-82
2022/01/03 05:15:32;;;;;;;5.70;1.40;;;;;;;9.55;100.00;98871.91;5006347;28;20205;-82
2022/01/03 05:18:00;;;;;;;7.73;1.50;;;;;;;9.55;100.00;98866.63;5010196;28;20202;-82
2022/01/03 05:20:31;;;;;;;8.20;1.60;;;;;;;9.44;100.00;98858.53;5011300;28;20198;-82
2022/01/03 05:22:59;;;;;;;5.13;1.43;;;;;;;9.34;100.00;98855.66;5014003;28;20190;-82
2022/01/03 05:25:27;;;;;;;5.20;1.40;;;;;;;9.37;100.00;98867.84;5011310;28;20206;-82
2022/01/03 05:27:55;;;;;;;11.07;1.33;;;;;;;9.44;100.00;98862.03;5004071;28;20253;-82
2022/01/03 05:30:23;;;;;;;8.20;1.40;;;;;;;9.38;100.00;98859.81;4977384;28;20209;-85
2022/01/03 05:32:52;;;;;;;5.83;1.30;;;;;;;9.24;100.00;98861.63;5007786;28;20201;-82
2022/01/03 05:35:20;;;;;;;3.83;1.27;;;;;;;9.29;100.00;98854.25;4975165;28;20234;-82
2022/01/03 05:37:50;;;;;;;10.23;1.53;;;;;;;9.20;100.00;98860.97;5010671;28;20236;-82
2022/01/03 05:40:18;;;;;;;6.47;1.37;;;;;;;9.31;100.00;98860.28;5014089;28;20318;-82
2022/01/03 05:42:46;;;;;;;9.60;1.60;;;;;;;9.11;100.00;98861.56;5006671;28;20202;-82
2022/01/03 05:45:15;;;;;;;6.63;1.30;;;;;;;9.11;100.00;98859.75;5011022;28;20191;-82
2022/01/03 05:47:45;;;;;;;7.80;1.47;;;;;;;9.08;100.00;98874.97;5010813;28;20240;-82
2022/01/03 05:50:15;;;;;;;4.37;1.03;;;;;;;9.26;100.00;98875.56;5007127;28;20256;-82
2022/01/03 05:52:44;;;;;;;6.17;1.23;;;;;;;9.27;100.00;98875.50;5009593;28;20198;-82
2022/01/03 05:55:15;;;;;;;6.40;1.63;;;;;;;9.20;100.00;98868.06;5009562;28;20191;-82
2022/01/03 05:57:43;;;;;;;7.57;1.77;;;;;;;9.26;100.00;98878.22;5010654;28;20194;-81
2022/01/03 06:00:15;;;;;;;7.73;2.20;;;;;;;9.17;100.00;98875.25;5011007;28;20206;-82
2022/01/03 06:02:44;;;;;;;4.67;1.57;;;;;;;9.11;100.00;98878.25;5009792;28;20210;-82
2022/01/03 06:05:19;;;;;;;6.63;1.93;;;;;;;9.14;100.00;98875.41;5010866;28;20194;-82
2022/01/03 06:07:48;;;;;;;6.37;2.03;;;;;;;8.99;100.00;98883.47;5005796;28;20217;-82
2022/01/03 06:10:18;;;;;;;8.00;1.80;;;;;;;8.71;100.00;98889.56;5017610;28;20206;-82
2022/01/03 06:12:47;;;;;;;8.90;2.40;;;;;;;8.62;100.00;98872.50;5007195;28;20202;-82
2022/01/03 06:15:16;;;;;;;5.17;2.00;;;;;;;8.66;100.00;98874.00;5008384;28;20202;-82
2022/01/03 06:17:44;;;;;;;6.47;2.00;;;;;;;8.60;100.00;98884.94;5014269;28;20202;-83
2022/01/03 06:20:13;;;;;;;9.27;2.00;;;;;;;8.81;100.00;98880.16;5014505;28;20193;-83
2022/01/03 06:22:41;;;;;;;11.40;1.83;;;;;;;8.80;100.00;98889.88;5005394;28;20242;-82
2022/01/03 06:25:11;;;;;;;5.70;1.53;;;;;;;8.87;100.00;98877.97;5017352;28;20198;-82
2022/01/03 06:27:41;;;;;;;8.90;1.73;;;;;;;8.79;100.00;98879.41;5013463;28;20218;-82
2022/01/03 06:30:12;;;;;;;7.20;1.40;;;;;;;8.85;100.00;98877.22;5017281;28;20258;-82
2022/01/03 06:32:40;;;;;;;6.27;1.70;;;;;;;8.79;100.00;98879.41;5015948;28;20202;-82
2022/01/03 06:35:09;;;;;;;7.97;1.83;;;;;;;8.79;100.00;98874.97;5016794;28;20221;-83
2022/01/03 06:37:38;;;;;;;6.43;1.77;;;;;;;8.71;100.00;98876.38;5007871;28;20221;-82
2022/01/03 06:40:08;;;;;;;6.00;1.80;;;;;;;8.79;100.00;98874.13;5012560;28;20199;-82
2022/01/03 06:42:36;;;;;;;7.83;1.80;;;;;;;8.63;100.00;98879.47;5014766;28;20209;-82
2022/01/03 06:45:09;;;;;;;7.67;1.67;;;;;;;8.55;100.00;98866.72;5007106;28;20206;-82
2022/01/03 06:47:37;;;;;;;6.80;1.80;;;;;;;8.53;100.00;98870.41;5008188;28;20242;-81
2022/01/03 06:50:08;;;;;;;6.13;1.73;;;;;;;8.57;100.00;98864.00;4967265;28;20195;-82
2022/01/03 06:52:36;;;;;;;10.23;1.73;;;;;;;8.62;100.00;98869.00;5012332;28;20190;-82
2022/01/03 06:55:08;;;;;;;11.03;1.63;;;;;;;8.61;100.00;98873.44;5014161;28;20191;-82
2022/01/03 06:57:36;;;;;;;5.87;1.30;;;;;;;8.65;100.00;98858.25;5007264;28;20677;-82
2022/01/03 07:00:05;;;;;;;11.33;1.77;;;;;;;8.59;100.00;98846.28;5014071;28;20662;-82
2022/01/03 07:02:35;;;;;;;7.63;1.43;;;;;;;8.55;100.00;98856.19;5016451;28;20207;-82
2022/01/03 07:05:04;;;;;;;6.00;1.53;;;;;;;8.51;100.00;98854.69;5016601;28;20274;-81
2022/01/03 07:07:32;;;;;;;8.93;1.70;;;;;;;8.53;100.00;98846.66;5010674;28;20252;-82
2022/01/03 07:10:01;;;;;;;8.43;1.73;;;;;;;8.51;100.00;98851.19;5014254;28;20230;-82
2022/01/03 07:12:29;;;;;;;7.63;1.47;;;;;;;8.42;100.00;98859.66;5011149;28;20229;-82
2022/01/03 07:20:31;;;;;;;8.90;1.57;;;;;;;8.54;100.00;98864.19;5010924;28;20215;-82
2022/01/03 07:23:00;;;;;;;7.93;1.30;;;;;;;8.53;100.00;98857.22;5016171;28;20199;-82
2022/01/03 07:25:28;;;;;;;5.30;1.70;;;;;;;8.49;100.00;98855.69;5016148;28;20206;-82
2022/01/03 07:27:56;;;;;;;6.77;1.27;;;;;;;8.59;100.00;98862.13;5012839;28;20222;-82
2022/01/03 07:30:25;;;;;;;7.30;1.60;;;;;;;8.62;100.00;98859.31;5012979;28;20194;-82
2022/01/03 07:32:57;;;;;;;7.07;1.50;;;;;;;8.60;100.00;98861.19;5010836;28;20210;-82
2022/01/03 07:35:25;;;;;;;8.57;1.60;;;;;;;8.64;100.00;98854.78;5010607;28;20187;-82
2022/01/03 07:37:53;;;;;;;8.13;1.90;;;;;;;8.46;100.00;98837.41;5014105;28;20253;-82
2022/01/03 07:40:22;;;;;;;8.20;1.77;;;;;;;8.52;100.00;98842.31;5013130;28;20199;-82
2022/01/03 07:42:50;;;;;;;6.80;1.50;;;;;;;8.45;100.00;98851.53;5009421;28;20334;-82
2022/01/03 07:45:19;;;;;;;6.60;1.67;;;;;;;8.47;100.00;98857.56;5011460;28;20190;-82
2022/01/03 07:47:48;;;;;;;8.33;1.47;;;;;;;8.50;100.00;98867.97;5012330;28;20230;-82
2022/01/03 07:50:18;;;;;;;10.43;1.70;;;;;;;8.59;100.00;98849.78;4999647;28;20203;-82
2022/01/03 07:52:46;;;;;;;7.60;1.30;;;;;;;8.68;100.00;98858.06;5013042;28;20244;-82
2022/01/03 07:55:16;;;;;;;6.37;1.50;;;;;;;8.59;100.00;98854.22;5011797;28;20198;-83
2022/01/03 07:57:45;;;;;;;7.30;2.13;;;;;;;8.58;100.00;98852.50;5004825;28;20198;-82
2022/01/03 08:00:16;;;;;;;7.30;1.83;;;;;;;8.68;100.00;98884.47;5005847;28;20191;-82
2022/01/03 08:02:44;;;;;;;11.70;1.97;;;;;;;8.75;100.00;98862.03;5012606;28;20198;-82
2022/01/03 08:05:14;;;;;;;9.10;1.63;;;;;;;8.76;100.00;98851.38;5015362;28;20198;-81
2022/01/03 08:07:46;;;;;;;8.33;2.10;;;;;;;8.68;100.00;98866.81;5012706;28;20223;-83
2022/01/03 08:10:15;;;;;;;7.07;1.50;;;;;;;8.77;100.00;98868.91;5015287;28;20198;-82
2022/01/03 08:12:44;;;;;;;7.63;2.07;;;;;;;8.75;100.00;98869.94;5014358;28;20194;-82
2022/01/03 08:15:14;;;;;;;8.93;1.87;;;;;;;8.79;100.00;98879.41;5009627;28;20237;-83
2022/01/03 08:17:44;;;;;;;8.27;1.60;;;;;;;8.82;100.00;98868.63;5010383;28;20629;-81
2022/01/03 08:20:13;;;;;;;7.13;1.60;;;;;;;8.76;100.00;98867.22;5015333;28;20650;-82
2022/01/03 08:22:42;;;;;;;10.20;1.70;;;;;;;8.93;100.00;98868.81;5010298;28;20238;-82
2022/01/03 08:25:12;;;;;;;8.13;1.50;;;;;;;8.85;100.00;98874.56;5009875;28;20198;-82
2022/01/03 08:27:40;;;;;;;7.03;1.87;;;;;;;8.93;100.00;98883.81;5011620;28;20225;-82
2022/01/03 08:30:09;;;;;;;8.20;1.50;;;;;;;8.96;100.00;98867.78;5014518;28;20198;-83
2022/01/03 08:32:37;;;;;;;6.20;2.00;;;;;;;8.95;100.00;98868.72;4976203;28;20213;-82
2022/01/03 08:35:06;;;;;;;5.77;1.43;;;;;;;8.97;100.00;98867.69;5011503;28;20213;-82
2022/01/03 08:37:35;;;;;;;7.43;1.40;;;;;;;9.06;100.00;98856.53;5006063;28;20199;-82
2022/01/03 08:40:06;;;;;;;11.17;1.70;;;;;;;8.94;100.00;98865.22;5008824;28;20214;-82
2022/01/03 08:42:36;;;;;;;8.53;1.70;;;;;;;8.96;100.00;98870.41;5013283;28;20198;-82
2022/01/03 08:45:05;;;;;;;9.70;1.73;;;;;;;9.00;100.00;98872.78;5011031;28;20206;-81
2022/01/03 08:47:34;;;;;;;7.60;1.83;;;;;;;9.10;100.00;98876.56;5011342;28;20191;-82
2022/01/03 08:50:03;;;;;;;7.70;1.53;;;;;;;9.13;100.00;98865.78;5007144;28;20202;-82
2022/01/03 08:52:31;;;;;;;10.20;1.60;;;;;;;9.16;100.00;98865.59;5009162;28;20206;-82
2022/01/03 08:54:59;;;;;;;6.93;1.97;;;;;;;9.21;100.00;98872.38;5011676;28;20195;-82
2022/01/03 08:57:28;;;;;;;8.67;1.90;;;;;;;9.45;100.00;98871.66;5008983;28;20209;-81
2022/01/03 08:59:57;;;;;;;8.93;2.60;;;;;;;9.35;100.00;98864.41;5009140;28;20256;-82
2022/01/03 09:02:25;;;;;;;9.50;1.73;;;;;;;9.50;100.00;98870.53;5011393;28;20198;-83
2022/01/03 09:04:54;;;;;;;7.10;1.73;;;;;;;9.45;100.00;98869.03;5014556;28;20202;-83
2022/01/03 09:07:22;;;;;;;8.77;1.97;;;;;;;9.53;100.00;98872.97;5011988;28;20198;-82
2022/01/03 09:09:51;;;;;;;10.83;2.30;;;;;;;9.44;100.00;98866.47;5008277;28;20276;-83
2022/01/03 09:12:19;;;;;;;8.87;1.77;;;;;;;9.50;100.00;98862.59;5015280;28;20206;-83
2022/01/03 09:14:47;;;;;;;13.17;2.47;;;;;;;9.51;100.00;98861.66;5009101;28;20198;-82
2022/01/03 09:17:17;;;;;;;12.03;1.80;;;;;;;9.57;100.00;98864.75;5014320;28;20241;-83
2022/01/03 09:19:45;;;;;;;6.97;1.40;;;;;;;9.60;100.00;98861.91;5017501;28;20265;-83
2022/01/03 09:22:23;;;;;;;11.73;2.30;;;;;;;9.64;100.00;98846.69;5002378;28;20222;-82
2022/01/03 09:28:48;;;;;;;10.33;1.97;;;;;;;9.74;100.00;98858.34;5008449;28;20204;-82
2022/01/03 09:30:27;;;;;;;10.40;2.53;;;;;;;9.96;100.00;98841.94;5013671;28;20210;-82
2022/01/03 09:32:57;;;;;;;11.07;2.00;;;;;;;10.20;100.00;98844.72;5007017;28;20202;-83
2022/01/03 09:35:26;;;;;;;11.47;2.50;;;;;;;10.25;100.00;98834.72;5008950;28;20191;-82
2022/01/03 09:37:55;;;;;;;12.23;2.33;;;;;;;10.41;100.00;98830.06;5010022;28;20716;-82
2022/01/03 09:40:25;;;;;;;11.50;2.43;;;;;;;10.41;100.00;98831.84;5013970;28;20202;-82
2022/01/03 09:42:59;;;;;;;7.30;1.97;;;;;;;10.49;100.00;98827.72;5005029;28;20261;-82
2022/01/03 09:45:32;;;;;;;11.27;2.20;;;;;;;10.65;100.00;98827.53;5006772;28;20206;-82
2022/01/03 09:48:07;;;;;;;11.70;2.53;;;;;;;10.85;100.00;98834.06;5007479;28;20211;-82
2022/01/03 09:50:35;;;;;;;7.60;1.93;;;;;;;10.95;100.00;98826.34;5005808;28;20248;-82
2022/01/03 09:53:04;;;;;;;20.30;9.07;;;;;;;10.92;100.00;98821.25;5009114;28;20198;-82
2022/01/03 09:55:33;;;;;;;10.30;4.50;;;;;;;10.88;100.00;98824.09;5010981;28;20273;-82
2022/01/03 09:58:02;;;;;;;10.93;3.07;;;;;;;10.70;100.00;98821.91;5005946;28;20202;-82
2022/01/03 10:00:30;;;;;;;13.90;2.93;;;;;;;10.73;100.00;98811.94;5005882;28;20198;-81
2022/01/03 10:02:58;;;;;;;10.87;2.57;;;;;;;10.81;100.00;98814.06;5001223;28;20206;-81
2022/01/03 10:05:29;;;;;;;9.73;2.33;;;;;;;10.82;100.00;98802.50;5008986;28;20202;-82
2022/01/03 10:07:58;;;;;;;13.53;2.80;;;;;;;10.82;100.00;98816.59;5014394;28;20202;-81
2022/01/03 10:10:28;;;;;;;7.33;1.90;;;;;;;10.94;100.00;98800.78;5009386;28;20222;-82
2022/01/03 10:12:56;;;;;;;9.07;2.07;;;;;;;10.79;100.00;98819.44;5013321;28;20198;-82
2022/01/03 10:15:25;;;;;;;12.43;2.70;;;;;;;10.83;100.00;98797.09;5003996;28;20191;-82
2022/01/03 10:17:53;;;;;;;9.97;2.47;;;;;;;10.76;100.00;98792.34;5013957;28;20229;-82
2022/01/03 10:20:22;;;;;;;8.90;1.80;;;;;;;10.93;100.00;98783.19;4934357;29;20193;-81
2022/01/03 10:22:51;;;;;;;13.40;2.40;;;;;;;10.89;100.00;98771.97;4927647;29;20225;-82
2022/01/03 10:25:23;;;;;;;11.93;2.13;;;;;;;10.80;100.00;98785.84;4925834;28;20253;-82
2022/01/03 10:27:52;;;;;;;8.03;1.97;;;;;;;10.78;100.00;98796.56;4929710;29;20728;-81
2022/01/03 10:30:36;;;;;;;10.67;2.37;;;;;;;10.69;100.00;98783.13;4933960;29;20220;-82
2022/01/03 10:33:08;;;;;;;8.63;2.10;;;;;;;10.87;100.00;98782.66;4931360;29;20208;-81
2022/01/03 10:35:41;;;;;;;8.47;2.37;;;;;;;11.07;100.00;98761.84;4929195;29;20205;-80
2022/01/03 10:38:12;;;;;;;10.40;2.07;;;;;;;11.18;100.00;98757.44;4951508;28;20728;-81
2022/01/03 10:40:40;;;;;;;8.47;1.97;;;;;;;11.07;100.00;98749.44;4991803;28;20199;-81
2022/01/03 10:43:18;;;;;;;8.87;1.80;;;;;;;11.34;100.00;98745.72;4987560;28;20217;-82
2022/01/03 10:45:50;;;;;;;10.63;2.10;;;;;;;11.36;100.00;98751.75;4989669;28;20595;-81
2022/01/03 10:48:30;;;;;;;10.83;2.57;;;;;;;11.18;100.00;98741.53;4993627;28;20203;-82
2022/01/03 10:51:00;;;;;;;8.77;2.00;;;;;;;11.31;100.00;98756.56;4983649;28;20207;-81
2022/01/03 10:53:35;;;;;;;8.63;2.40;;;;;;;11.31;100.00;98760.06;4989725;28;20366;-81
2022/01/03 10:56:29;;;;;;;11.47;2.43;;;;;;;11.37;100.00;98742.84;4991456;28;20198;-81
2022/01/03 10:59:21;;;;;;;9.27;2.40;;;;;;;11.55;100.00;98746.78;4994990;28;20199;-82
2022/01/03 11:01:53;;;;;;;9.17;1.97;;;;;;;11.72;100.00;98737.56;4997157;28;20202;-81
2022/01/03 11:04:26;;;;;;;11.47;2.13;;;;;;;11.78;100.00;98734.47;4997202;28;20201;-81
2022/01/03 11:13:15;;;;;;;9.20;2.33;;;;;;;12.01;100.00;98732.72;4995566;28;20195;-81
2022/01/03 11:15:51;;;;;;;7.70;2.33;;;;;;;12.17;100.00;98727.09;4994796;28;20200;-81
2022/01/03 11:18:21;;;;;;;9.67;1.90;;;;;;;12.21;100.00;98742.66;4997011;28;20717;-82
2022/01/03 11:21:01;;;;;;;6.47;1.80;;;;;;;11.74;100.00;98763.00;5000069;28;20238;-82
2022/01/03 11:23:33;;;;;;;10.00;1.53;;;;;;;11.87;100.00;98746.19;5017497;28;20254;-81
2022/01/03 11:26:08;;;;;;;11.77;1.90;;;;;;;11.67;100.00;98727.28;5010907;28;20265;-81
2022/01/03 11:28:37;;;;;;;8.40;1.60;;;;;;;11.73;100.00;98749.88;5015670;28;20210;-81
2022/01/03 11:31:10;;;;;;;10.03;1.90;;;;;;;11.35;100.00;98732.34;4992838;28;20222;-82
2022/01/03 11:33:40;;;;;;;6.33;1.87;;;;;;;11.35;100.00;98736.81;4995105;28;20191;-81
2022/01/03 11:36:28;;;;;;;6.57;1.60;;;;;;;11.49;100.00;98723.41;4989083;28;20207;-82
2022/01/03 11:38:58;;;;;;;9.60;1.87;;;;;;;11.22;100.00;98723.63;4992237;28;20269;-82
2022/01/03 11:41:28;;;;;;;7.37;1.70;;;;;;;11.05;100.00;98727.50;4996738;28;20187;-81
2022/01/03 11:43:57;;;;;;;5.50;1.73;;;;;;;10.93;100.00;98715.16;4961384;28;20194;-82
2022/01/03 11:46:25;;;;;;;7.17;1.60;;;;;;;10.97;100.00;98705.16;4986277;28;20199;-82
2022/01/03 11:48:54;;;;;;;5.20;1.47;;;;;;;10.86;100.00;98714.75;4989468;28;20230;-82
2022/01/03 11:51:23;;;;;;;4.73;1.30;;;;;;;10.96;100.00;98703.47;4994061;28;20205;-81
2022/01/03 11:53:52;;;;;;;6.23;1.57;;;;;;;11.06;100.00;98712.44;4985335;28;20242;-81
2022/01/03 11:56:23;;;;;;;4.10;1.23;;;;;;;10.85;100.00;98705.09;5007360;28;20190;-82
2022/01/03 11:59:00;;;;;;;3.20;1.33;;;;;;;10.66;100.00;98717.97;5008415;28;20206;-83
2022/01/03 12:04:24;;;;;;;4.43;1.90;;;;;;;10.57;100.00;98721.28;5011059;28;20550;-82